AFL1401 USSS-UUEE
Flight info
| Callsign | AFL1401 |
|---|---|
| Flight time | 2h 6m |
| Altitude | 34000 |
| Route | N0450F340 LUNAG M864 KERUN P164 IDMOR M864 IBROT T535 URIDU L158 DIMGI |
| Aircraft | A321/M-VGDW/C |
Departure
| Time | 2026-05-05 12:02 |
|---|---|
| Airport | Koltsovo Airport (USSS) |
Arrival
| Time | 2026-05-05 14:09 |
|---|---|
| Airport | Sheremetyevo International Airport (UUEE) |
| Time | Latitude | Longitude | Altitude | Speed | Heading |
|---|---|---|---|---|---|
| 2026-05-05 11:41 | 56.74931 | 60.79773 | 779 ft | 0 kts | 360° |
| 2026-05-05 11:52 | 56.74915 | 60.79775 | 779 ft | 2 kts | 359° |
| 2026-05-05 11:52 | 56.74900 | 60.79776 | 779 ft | 2 kts | 358° |
| 2026-05-05 11:53 | 56.74884 | 60.79777 | 779 ft | 2 kts | 358° |
| 2026-05-05 11:53 | 56.74868 | 60.79777 | 779 ft | 2 kts | 358° |
| 2026-05-05 11:53 | 56.74858 | 60.79776 | 779 ft | 1 kts | 60° |
| 2026-05-05 11:53 | 56.74856 | 60.79751 | 779 ft | 2 kts | 90° |
| 2026-05-05 11:54 | 56.74856 | 60.79750 | 779 ft | 0 kts | 89° |
| 2026-05-05 11:56 | 56.74856 | 60.79760 | 779 ft | 2 kts | 89° |
| 2026-05-05 11:57 | 56.74857 | 60.79802 | 779 ft | 4 kts | 89° |
| 2026-05-05 11:57 | 56.74857 | 60.79874 | 779 ft | 7 kts | 89° |
| 2026-05-05 11:57 | 56.74858 | 60.79982 | 779 ft | 10 kts | 90° |
| 2026-05-05 11:57 | 56.74804 | 60.80081 | 779 ft | 14 kts | 176° |
| 2026-05-05 11:58 | 56.74691 | 60.80092 | 779 ft | 18 kts | 152° |
| 2026-05-05 11:58 | 56.74663 | 60.80317 | 779 ft | 18 kts | 90° |
| 2026-05-05 11:58 | 56.74663 | 60.80549 | 779 ft | 18 kts | 90° |
| 2026-05-05 11:58 | 56.74663 | 60.80786 | 779 ft | 19 kts | 90° |
| 2026-05-05 11:59 | 56.74662 | 60.81028 | 779 ft | 19 kts | 90° |
| 2026-05-05 11:59 | 56.74662 | 60.81274 | 779 ft | 20 kts | 90° |
| 2026-05-05 11:59 | 56.74662 | 60.81526 | 779 ft | 20 kts | 90° |
| 2026-05-05 11:59 | 56.74662 | 60.81782 | 779 ft | 20 kts | 90° |
| 2026-05-05 12:00 | 56.74662 | 60.82013 | 779 ft | 16 kts | 90° |
| 2026-05-05 12:00 | 56.74607 | 60.82155 | 779 ft | 17 kts | 179° |
| 2026-05-05 12:00 | 56.74488 | 60.82160 | 779 ft | 17 kts | 179° |
| 2026-05-05 12:00 | 56.74367 | 60.82155 | 779 ft | 18 kts | 184° |
| 2026-05-05 12:01 | 56.74245 | 60.82136 | 779 ft | 18 kts | 186° |
| 2026-05-05 12:01 | 56.74118 | 60.82113 | 779 ft | 18 kts | 184° |
| 2026-05-05 12:01 | 56.74066 | 60.82036 | 779 ft | 0 kts | 271° |
| 2026-05-05 12:01 | 56.74066 | 60.82035 | 779 ft | 0 kts | 271° |
| 2026-05-05 12:02 | 56.74077 | 60.81738 | 779 ft | 59 kts | 274° |
| 2026-05-05 12:02 | 56.74123 | 60.80587 | 779 ft | 122 kts | 274° |
| 2026-05-05 12:02 | 56.74197 | 60.78726 | 834 ft | 165 kts | 275° |
| 2026-05-05 12:02 | 56.74238 | 60.76676 | 1521 ft | 159 kts | 272° |
| 2026-05-05 12:03 | 56.74267 | 60.74664 | 2215 ft | 158 kts | 272° |
| 2026-05-05 12:03 | 56.74295 | 60.72674 | 2800 ft | 156 kts | 272° |
| 2026-05-05 12:03 | 56.74322 | 60.70666 | 3052 ft | 159 kts | 272° |
| 2026-05-05 12:03 | 56.74349 | 60.68648 | 3355 ft | 160 kts | 272° |
| 2026-05-05 12:04 | 56.74375 | 60.66624 | 3653 ft | 160 kts | 272° |
| 2026-05-05 12:04 | 56.74402 | 60.64563 | 3885 ft | 168 kts | 272° |
| 2026-05-05 12:04 | 56.74430 | 60.62322 | 3996 ft | 187 kts | 272° |
| 2026-05-05 12:04 | 56.74463 | 60.59788 | 4085 ft | 213 kts | 272° |
| 2026-05-05 12:05 | 56.74498 | 60.56919 | 4162 ft | 240 kts | 272° |
| 2026-05-05 12:05 | 56.74566 | 60.53724 | 4366 ft | 261 kts | 275° |
| 2026-05-05 12:05 | 56.74800 | 60.50478 | 5300 ft | 255 kts | 280° |
| 2026-05-05 12:05 | 56.75136 | 60.47265 | 6023 ft | 262 kts | 282° |
| 2026-05-05 12:06 | 56.75373 | 60.45108 | 6548 ft | 262 kts | 282° |
| 2026-05-05 12:06 | 56.75738 | 60.41830 | 7299 ft | 266 kts | 282° |
| 2026-05-05 12:06 | 56.76113 | 60.38498 | 7966 ft | 271 kts | 282° |
| 2026-05-05 12:06 | 56.76494 | 60.35132 | 8675 ft | 273 kts | 282° |
| 2026-05-05 12:07 | 56.76881 | 60.31717 | 9319 ft | 277 kts | 282° |
| 2026-05-05 12:07 | 56.77272 | 60.28271 | 9990 ft | 278 kts | 282° |
| 2026-05-05 12:07 | 56.77672 | 60.24736 | 10291 ft | 296 kts | 282° |
| 2026-05-05 12:07 | 56.78106 | 60.20917 | 10374 ft | 319 kts | 282° |
| 2026-05-05 12:08 | 56.78569 | 60.16831 | 10480 ft | 339 kts | 282° |
| 2026-05-05 12:08 | 56.78948 | 60.12577 | 11140 ft | 339 kts | 278° |
| 2026-05-05 12:08 | 56.79215 | 60.08285 | 11707 ft | 342 kts | 277° |
| 2026-05-05 12:08 | 56.79478 | 60.03972 | 12367 ft | 342 kts | 277° |
| 2026-05-05 12:09 | 56.79742 | 59.99632 | 12883 ft | 346 kts | 277° |
| 2026-05-05 12:09 | 56.80008 | 59.95265 | 13478 ft | 347 kts | 277° |
| 2026-05-05 12:09 | 56.80275 | 59.90867 | 13995 ft | 350 kts | 278° |
| 2026-05-05 12:09 | 56.80544 | 59.86429 | 14495 ft | 353 kts | 278° |
| 2026-05-05 12:10 | 56.80813 | 59.81954 | 14986 ft | 356 kts | 278° |
| 2026-05-05 12:10 | 56.81084 | 59.77444 | 15456 ft | 359 kts | 278° |
| 2026-05-05 12:10 | 56.81354 | 59.72904 | 15969 ft | 361 kts | 278° |
| 2026-05-05 12:10 | 56.81626 | 59.68327 | 16426 ft | 364 kts | 278° |
| 2026-05-05 12:11 | 56.81898 | 59.63718 | 16896 ft | 367 kts | 278° |
| 2026-05-05 12:11 | 56.82171 | 59.59066 | 17354 ft | 370 kts | 278° |
| 2026-05-05 12:11 | 56.82440 | 59.54457 | 17831 ft | 372 kts | 278° |
| 2026-05-05 12:11 | 56.82717 | 59.49686 | 18268 ft | 375 kts | 278° |
| 2026-05-05 12:12 | 56.82976 | 59.44933 | 18705 ft | 378 kts | 277° |
| 2026-05-05 12:12 | 56.83232 | 59.40149 | 19144 ft | 380 kts | 277° |
| 2026-05-05 12:12 | 56.83494 | 59.35330 | 19551 ft | 383 kts | 278° |
| 2026-05-05 12:12 | 56.83755 | 59.30549 | 19951 ft | 385 kts | 278° |
| 2026-05-05 12:13 | 56.84023 | 59.25666 | 20365 ft | 387 kts | 278° |
| 2026-05-05 12:13 | 56.84292 | 59.20756 | 20744 ft | 390 kts | 278° |
| 2026-05-05 12:13 | 56.84562 | 59.15811 | 21121 ft | 392 kts | 278° |
| 2026-05-05 12:13 | 56.84833 | 59.10837 | 21499 ft | 395 kts | 278° |
| 2026-05-05 12:14 | 56.85068 | 59.05828 | 21858 ft | 398 kts | 275° |
| 2026-05-05 12:14 | 56.85173 | 59.00755 | 22218 ft | 400 kts | 274° |
| 2026-05-05 12:14 | 56.85264 | 58.95656 | 22562 ft | 403 kts | 274° |
| 2026-05-05 12:14 | 56.85355 | 58.90537 | 22897 ft | 405 kts | 274° |
| 2026-05-05 12:15 | 56.85448 | 58.85376 | 23227 ft | 407 kts | 275° |
| 2026-05-05 12:15 | 56.85541 | 58.80202 | 23541 ft | 409 kts | 275° |
| 2026-05-05 12:15 | 56.85633 | 58.74987 | 23864 ft | 411 kts | 275° |
| 2026-05-05 12:15 | 56.85726 | 58.69754 | 24154 ft | 413 kts | 275° |
| 2026-05-05 12:16 | 56.85818 | 58.64492 | 24460 ft | 415 kts | 275° |
| 2026-05-05 12:16 | 56.85909 | 58.59208 | 24728 ft | 417 kts | 275° |
| 2026-05-05 12:16 | 56.85999 | 58.53897 | 24998 ft | 419 kts | 275° |
| 2026-05-05 12:16 | 56.86087 | 58.48567 | 25264 ft | 421 kts | 275° |
| 2026-05-05 12:17 | 56.86174 | 58.43207 | 25516 ft | 423 kts | 275° |
| 2026-05-05 12:17 | 56.86261 | 58.37819 | 25754 ft | 425 kts | 275° |
| 2026-05-05 12:17 | 56.86346 | 58.32408 | 25997 ft | 427 kts | 274° |
| 2026-05-05 12:17 | 56.86429 | 58.26982 | 26221 ft | 428 kts | 274° |
| 2026-05-05 12:18 | 56.86511 | 58.21525 | 26451 ft | 430 kts | 275° |
| 2026-05-05 12:18 | 56.86592 | 58.16050 | 26663 ft | 432 kts | 275° |
| 2026-05-05 12:18 | 56.86671 | 58.10561 | 26872 ft | 434 kts | 274° |
| 2026-05-05 12:18 | 56.86749 | 58.05037 | 27082 ft | 435 kts | 274° |
| 2026-05-05 12:19 | 56.86825 | 57.99505 | 27292 ft | 436 kts | 274° |
| 2026-05-05 12:19 | 56.86899 | 57.93947 | 27508 ft | 438 kts | 274° |
| 2026-05-05 12:19 | 56.86972 | 57.88374 | 27696 ft | 439 kts | 275° |
| 2026-05-05 12:19 | 56.87044 | 57.82784 | 27889 ft | 441 kts | 275° |
| 2026-05-05 12:20 | 56.87114 | 57.77177 | 28083 ft | 442 kts | 274° |
| 2026-05-05 12:20 | 56.87183 | 57.71555 | 28350 ft | 441 kts | 274° |
| 2026-05-05 12:20 | 56.87248 | 57.65938 | 28524 ft | 443 kts | 274° |
| 2026-05-05 12:20 | 56.87312 | 57.60298 | 28702 ft | 444 kts | 274° |
| 2026-05-05 12:21 | 56.87374 | 57.54644 | 28890 ft | 445 kts | 274° |
| 2026-05-05 12:21 | 56.87435 | 57.48970 | 29040 ft | 447 kts | 274° |
| 2026-05-05 12:21 | 56.87495 | 57.43284 | 29221 ft | 448 kts | 274° |
| 2026-05-05 12:21 | 56.87554 | 57.37583 | 29368 ft | 450 kts | 274° |
| 2026-05-05 12:22 | 56.87610 | 57.31941 | 29557 ft | 450 kts | 274° |
| 2026-05-05 12:22 | 56.87666 | 57.26135 | 29687 ft | 452 kts | 274° |
| 2026-05-05 12:22 | 56.87718 | 57.20388 | 29852 ft | 452 kts | 274° |
| 2026-05-05 12:22 | 56.87766 | 57.14700 | 29983 ft | 454 kts | 274° |
| 2026-05-05 12:23 | 56.87812 | 57.08936 | 30163 ft | 454 kts | 274° |
| 2026-05-05 12:23 | 56.87855 | 57.03079 | 30314 ft | 455 kts | 274° |
| 2026-05-05 12:23 | 56.87894 | 56.97367 | 30469 ft | 456 kts | 274° |
| 2026-05-05 12:23 | 56.87931 | 56.91507 | 30678 ft | 455 kts | 274° |
| 2026-05-05 12:24 | 56.87964 | 56.85803 | 30904 ft | 454 kts | 274° |
| 2026-05-05 12:24 | 56.87994 | 56.80045 | 31130 ft | 452 kts | 274° |
| 2026-05-05 12:24 | 56.88021 | 56.74296 | 31357 ft | 451 kts | 274° |
| 2026-05-05 12:24 | 56.88046 | 56.68576 | 31599 ft | 450 kts | 274° |
| 2026-05-05 12:25 | 56.88067 | 56.62862 | 31828 ft | 449 kts | 273° |
| 2026-05-05 12:25 | 56.88083 | 56.57156 | 32037 ft | 448 kts | 273° |
| 2026-05-05 12:25 | 56.88095 | 56.51472 | 32254 ft | 447 kts | 273° |
| 2026-05-05 12:25 | 56.88100 | 56.45796 | 32484 ft | 445 kts | 272° |
| 2026-05-05 12:26 | 56.88069 | 56.40180 | 32938 ft | 438 kts | 272° |
| 2026-05-05 12:26 | 56.88029 | 56.34613 | 33128 ft | 438 kts | 272° |
| 2026-05-05 12:26 | 56.88001 | 56.29036 | 33260 ft | 439 kts | 272° |
| 2026-05-05 12:26 | 56.87986 | 56.23463 | 33429 ft | 438 kts | 272° |
| 2026-05-05 12:27 | 56.87980 | 56.17906 | 33657 ft | 436 kts | 273° |
| 2026-05-05 12:27 | 56.87982 | 56.12357 | 33792 ft | 438 kts | 273° |
| 2026-05-05 12:27 | 56.88008 | 56.01227 | 33836 ft | 436 kts | 273° |
| 2026-05-05 12:28 | 56.88027 | 55.90162 | 33839 ft | 435 kts | 271° |
| 2026-05-05 12:28 | 56.87853 | 55.79089 | 33838 ft | 436 kts | 271° |
| 2026-05-05 12:29 | 56.87680 | 55.68028 | 33838 ft | 435 kts | 271° |
| 2026-05-05 12:29 | 56.87516 | 55.56968 | 33839 ft | 435 kts | 271° |
| 2026-05-05 12:30 | 56.87355 | 55.45918 | 33839 ft | 435 kts | 271° |
| 2026-05-05 12:30 | 56.87194 | 55.34881 | 33840 ft | 434 kts | 271° |
| 2026-05-05 12:31 | 56.87029 | 55.23854 | 33841 ft | 434 kts | 271° |
| 2026-05-05 12:31 | 56.86858 | 55.12839 | 33841 ft | 433 kts | 271° |
| 2026-05-05 12:32 | 56.86682 | 55.01915 | 33842 ft | 433 kts | 270° |
| 2026-05-05 12:32 | 56.86497 | 54.90920 | 33843 ft | 432 kts | 270° |
| 2026-05-05 12:33 | 56.86305 | 54.79928 | 33842 ft | 433 kts | 270° |
| 2026-05-05 12:33 | 56.86103 | 54.68938 | 33845 ft | 432 kts | 270° |
| 2026-05-05 12:34 | 56.85891 | 54.57958 | 33845 ft | 432 kts | 270° |
| 2026-05-05 12:34 | 56.85686 | 54.46984 | 33846 ft | 432 kts | 270° |
| 2026-05-05 12:35 | 56.85499 | 54.36017 | 33847 ft | 432 kts | 270° |
| 2026-05-05 12:35 | 56.85323 | 54.25048 | 33848 ft | 432 kts | 270° |
| 2026-05-05 12:36 | 56.85128 | 54.14085 | 33848 ft | 432 kts | 270° |
| 2026-05-05 12:36 | 56.84878 | 54.03118 | 33849 ft | 432 kts | 269° |
| 2026-05-05 12:37 | 56.84613 | 53.92168 | 33850 ft | 429 kts | 269° |
| 2026-05-05 12:37 | 56.84349 | 53.81270 | 33851 ft | 430 kts | 269° |
| 2026-05-05 12:38 | 56.84083 | 53.70361 | 33851 ft | 430 kts | 269° |
| 2026-05-05 12:38 | 56.83813 | 53.59455 | 33852 ft | 429 kts | 269° |
| 2026-05-05 12:39 | 56.83537 | 53.48571 | 33853 ft | 429 kts | 269° |
| 2026-05-05 12:39 | 56.83441 | 53.37690 | 33853 ft | 428 kts | 271° |
| 2026-05-05 12:40 | 56.83433 | 53.26817 | 33854 ft | 428 kts | 271° |
| 2026-05-05 12:40 | 56.83427 | 53.15955 | 33854 ft | 427 kts | 271° |
| 2026-05-05 12:41 | 56.83420 | 53.05193 | 33855 ft | 427 kts | 271° |
| 2026-05-05 12:41 | 56.83408 | 52.94357 | 33855 ft | 427 kts | 271° |
| 2026-05-05 12:42 | 56.83331 | 52.83521 | 33856 ft | 427 kts | 270° |
| 2026-05-05 12:42 | 56.83251 | 52.72686 | 33856 ft | 427 kts | 270° |
| 2026-05-05 12:43 | 56.83171 | 52.61858 | 33856 ft | 427 kts | 270° |
| 2026-05-05 12:43 | 56.83089 | 52.51032 | 33857 ft | 426 kts | 270° |
| 2026-05-05 12:44 | 56.83002 | 52.40209 | 33857 ft | 426 kts | 270° |
| 2026-05-05 12:44 | 56.82909 | 52.29382 | 33857 ft | 426 kts | 270° |
| 2026-05-05 12:45 | 56.82817 | 52.18556 | 33857 ft | 426 kts | 271° |
| 2026-05-05 12:45 | 56.82930 | 52.07740 | 33857 ft | 426 kts | 272° |
| 2026-05-05 12:46 | 56.83075 | 51.96927 | 33848 ft | 426 kts | 272° |
| 2026-05-05 12:46 | 56.83223 | 51.86132 | 33847 ft | 425 kts | 272° |
| 2026-05-05 12:47 | 56.83368 | 51.75356 | 33847 ft | 424 kts | 272° |
| 2026-05-05 12:47 | 56.83510 | 51.64589 | 33847 ft | 424 kts | 272° |
| 2026-05-05 12:48 | 56.83622 | 51.53815 | 33845 ft | 425 kts | 269° |
| 2026-05-05 12:48 | 56.83241 | 51.43048 | 33846 ft | 425 kts | 267° |
| 2026-05-05 12:49 | 56.82824 | 51.32359 | 33846 ft | 425 kts | 267° |
| 2026-05-05 12:49 | 56.82407 | 51.21630 | 33846 ft | 423 kts | 267° |
| 2026-05-05 12:50 | 56.81989 | 51.10899 | 33845 ft | 424 kts | 267° |
| 2026-05-05 12:50 | 56.81568 | 51.00177 | 33845 ft | 424 kts | 267° |
| 2026-05-05 12:51 | 56.81141 | 50.89457 | 33845 ft | 424 kts | 267° |
| 2026-05-05 12:51 | 56.80707 | 50.78735 | 33844 ft | 423 kts | 266° |
| 2026-05-05 12:52 | 56.80265 | 50.68024 | 33843 ft | 423 kts | 266° |
| 2026-05-05 12:52 | 56.79815 | 50.57306 | 33843 ft | 424 kts | 266° |
| 2026-05-05 12:53 | 56.79357 | 50.46599 | 33842 ft | 423 kts | 266° |
| 2026-05-05 12:53 | 56.78889 | 50.35886 | 33841 ft | 424 kts | 266° |
| 2026-05-05 12:54 | 56.78253 | 50.21602 | 33841 ft | 424 kts | 266° |
| 2026-05-05 12:55 | 56.77764 | 50.10872 | 33841 ft | 424 kts | 266° |
| 2026-05-05 12:55 | 56.77266 | 50.00145 | 33841 ft | 425 kts | 266° |
| 2026-05-05 12:56 | 56.76760 | 49.89453 | 33840 ft | 422 kts | 266° |
| 2026-05-05 12:56 | 56.76284 | 49.78776 | 33840 ft | 423 kts | 267° |
| 2026-05-05 12:57 | 56.75924 | 49.68084 | 33840 ft | 423 kts | 267° |
| 2026-05-05 12:57 | 56.75593 | 49.57385 | 33839 ft | 423 kts | 267° |
| 2026-05-05 12:58 | 56.75279 | 49.46776 | 33839 ft | 421 kts | 268° |
| 2026-05-05 12:58 | 56.74970 | 49.36117 | 33839 ft | 421 kts | 268° |
| 2026-05-05 12:59 | 56.74662 | 49.25458 | 33839 ft | 421 kts | 267° |
| 2026-05-05 12:59 | 56.74352 | 49.14826 | 33831 ft | 420 kts | 267° |
| 2026-05-05 13:00 | 56.73877 | 48.98883 | 33824 ft | 420 kts | 267° |
| 2026-05-05 13:01 | 56.73220 | 48.77661 | 33824 ft | 420 kts | 267° |
| 2026-05-05 13:01 | 56.72880 | 48.67053 | 33836 ft | 419 kts | 266° |
| 2026-05-05 13:02 | 56.72530 | 48.56405 | 34009 ft | 423 kts | 266° |
| 2026-05-05 13:02 | 56.72319 | 48.51059 | 34135 ft | 425 kts | 266° |
| 2026-05-05 13:02 | 56.72099 | 48.45690 | 34280 ft | 424 kts | 266° |
| 2026-05-05 13:03 | 56.71884 | 48.40352 | 34497 ft | 423 kts | 266° |
| 2026-05-05 13:03 | 56.71673 | 48.35014 | 34696 ft | 423 kts | 266° |
| 2026-05-05 13:03 | 56.71466 | 48.29681 | 34896 ft | 422 kts | 266° |
| 2026-05-05 13:03 | 56.71260 | 48.24351 | 35096 ft | 422 kts | 266° |
| 2026-05-05 13:04 | 56.71056 | 48.19032 | 35295 ft | 421 kts | 266° |
| 2026-05-05 13:04 | 56.70852 | 48.13715 | 35495 ft | 421 kts | 266° |
| 2026-05-05 13:04 | 56.70648 | 48.08411 | 35691 ft | 420 kts | 266° |
| 2026-05-05 13:04 | 56.70444 | 48.03090 | 35786 ft | 422 kts | 266° |
| 2026-05-05 13:05 | 56.70035 | 47.92464 | 35816 ft | 422 kts | 265° |
| 2026-05-05 13:05 | 56.69618 | 47.81826 | 35818 ft | 422 kts | 265° |
| 2026-05-05 13:06 | 56.69191 | 47.71092 | 35817 ft | 422 kts | 265° |
| 2026-05-05 13:06 | 56.68763 | 47.60528 | 35817 ft | 421 kts | 265° |
| 2026-05-05 13:07 | 56.68324 | 47.49905 | 35817 ft | 421 kts | 265° |
| 2026-05-05 13:07 | 56.67877 | 47.39287 | 35816 ft | 421 kts | 265° |
| 2026-05-05 13:08 | 56.67361 | 47.28699 | 35809 ft | 420 kts | 260° |
| 2026-05-05 13:08 | 56.65640 | 47.18569 | 35810 ft | 421 kts | 250° |
| 2026-05-05 13:09 | 56.63567 | 47.08623 | 35809 ft | 421 kts | 250° |
| 2026-05-05 13:09 | 56.61489 | 46.98697 | 35809 ft | 421 kts | 250° |
| 2026-05-05 13:10 | 56.59406 | 46.88778 | 35809 ft | 420 kts | 250° |
| 2026-05-05 13:10 | 56.57316 | 46.78876 | 35809 ft | 420 kts | 250° |
| 2026-05-05 13:11 | 56.55219 | 46.68982 | 35808 ft | 420 kts | 249° |
| 2026-05-05 13:11 | 56.53121 | 46.59092 | 35808 ft | 420 kts | 250° |
| 2026-05-05 13:12 | 56.51056 | 46.49195 | 35807 ft | 420 kts | 250° |
| 2026-05-05 13:12 | 56.48993 | 46.39279 | 35806 ft | 421 kts | 250° |
| 2026-05-05 13:13 | 56.46929 | 46.29364 | 35805 ft | 421 kts | 250° |
| 2026-05-05 13:13 | 56.44876 | 46.19519 | 35804 ft | 421 kts | 250° |
| 2026-05-05 13:14 | 56.42787 | 46.09532 | 35803 ft | 422 kts | 250° |
| 2026-05-05 13:14 | 56.40720 | 45.99687 | 35802 ft | 422 kts | 250° |
| 2026-05-05 13:15 | 56.38637 | 45.89797 | 35803 ft | 420 kts | 249° |
| 2026-05-05 13:15 | 56.36556 | 45.79987 | 35800 ft | 418 kts | 249° |
| 2026-05-05 13:16 | 56.34462 | 45.70147 | 35798 ft | 422 kts | 249° |
| 2026-05-05 13:16 | 56.32358 | 45.60300 | 35796 ft | 421 kts | 249° |
| 2026-05-05 13:17 | 56.30246 | 45.50464 | 35795 ft | 421 kts | 249° |
| 2026-05-05 13:17 | 56.28128 | 45.40644 | 35793 ft | 420 kts | 249° |
| 2026-05-05 13:18 | 56.25980 | 45.30895 | 35791 ft | 418 kts | 248° |
| 2026-05-05 13:18 | 56.23794 | 45.21212 | 35791 ft | 419 kts | 249° |
| 2026-05-05 13:19 | 56.21621 | 45.11499 | 35793 ft | 418 kts | 249° |
| 2026-05-05 13:19 | 56.19463 | 45.01814 | 35792 ft | 418 kts | 249° |
| 2026-05-05 13:20 | 56.17306 | 44.92123 | 35791 ft | 418 kts | 249° |
| 2026-05-05 13:20 | 56.15155 | 44.82469 | 35790 ft | 417 kts | 249° |
| 2026-05-05 13:21 | 56.12999 | 44.72818 | 35789 ft | 417 kts | 249° |
| 2026-05-05 13:21 | 56.10971 | 44.63091 | 35788 ft | 416 kts | 255° |
| 2026-05-05 13:22 | 56.10120 | 44.52918 | 35792 ft | 416 kts | 263° |
| 2026-05-05 13:22 | 56.09490 | 44.42536 | 35791 ft | 417 kts | 263° |
| 2026-05-05 13:23 | 56.08888 | 44.32267 | 35789 ft | 417 kts | 263° |
| 2026-05-05 13:23 | 56.08290 | 44.21934 | 35788 ft | 417 kts | 263° |
| 2026-05-05 13:24 | 56.07694 | 44.11567 | 35788 ft | 418 kts | 263° |
| 2026-05-05 13:24 | 56.07097 | 44.01215 | 35787 ft | 418 kts | 263° |
| 2026-05-05 13:25 | 56.06495 | 43.90861 | 35787 ft | 418 kts | 263° |
| 2026-05-05 13:25 | 56.05887 | 43.80516 | 35787 ft | 418 kts | 263° |
| 2026-05-05 13:26 | 56.05273 | 43.70186 | 35787 ft | 417 kts | 263° |
| 2026-05-05 13:26 | 56.04651 | 43.59868 | 35787 ft | 417 kts | 263° |
| 2026-05-05 13:27 | 56.04023 | 43.49581 | 35787 ft | 416 kts | 263° |
| 2026-05-05 13:27 | 56.03387 | 43.39311 | 35787 ft | 415 kts | 263° |
| 2026-05-05 13:28 | 56.03010 | 43.29011 | 35789 ft | 416 kts | 269° |
| 2026-05-05 13:28 | 56.03124 | 43.18680 | 35789 ft | 415 kts | 270° |
| 2026-05-05 13:29 | 56.03271 | 43.08362 | 35790 ft | 415 kts | 270° |
| 2026-05-05 13:29 | 56.03434 | 42.98051 | 35790 ft | 414 kts | 270° |
| 2026-05-05 13:30 | 56.03603 | 42.87754 | 35791 ft | 414 kts | 270° |
| 2026-05-05 13:30 | 56.03772 | 42.77480 | 35793 ft | 414 kts | 270° |
| 2026-05-05 13:31 | 56.03937 | 42.67262 | 35794 ft | 414 kts | 270° |
| 2026-05-05 13:31 | 56.03785 | 42.56999 | 35795 ft | 413 kts | 262° |
| 2026-05-05 13:32 | 56.02401 | 42.47004 | 35797 ft | 412 kts | 250° |
| 2026-05-05 13:32 | 56.00318 | 42.37518 | 35798 ft | 412 kts | 249° |
| 2026-05-05 13:33 | 55.98188 | 42.27980 | 35800 ft | 414 kts | 249° |
| 2026-05-05 13:33 | 55.96040 | 42.18459 | 35802 ft | 413 kts | 249° |
| 2026-05-05 13:34 | 55.93882 | 42.08971 | 35804 ft | 412 kts | 248° |
| 2026-05-05 13:34 | 55.91714 | 41.99499 | 35806 ft | 413 kts | 248° |
| 2026-05-05 13:35 | 55.89537 | 41.90041 | 35808 ft | 412 kts | 248° |
| 2026-05-05 13:35 | 55.87625 | 41.80422 | 35809 ft | 412 kts | 255° |
| 2026-05-05 13:36 | 55.86720 | 41.70331 | 35812 ft | 414 kts | 265° |
| 2026-05-05 13:36 | 55.86348 | 41.60079 | 34827 ft | 420 kts | 265° |
| 2026-05-05 13:37 | 55.86171 | 41.54850 | 34027 ft | 423 kts | 265° |
| 2026-05-05 13:37 | 55.86000 | 41.49632 | 33176 ft | 425 kts | 265° |
| 2026-05-05 13:37 | 55.85829 | 41.44371 | 32430 ft | 425 kts | 266° |
| 2026-05-05 13:37 | 55.85662 | 41.39180 | 31919 ft | 418 kts | 265° |
| 2026-05-05 13:38 | 55.85496 | 41.34023 | 31316 ft | 415 kts | 265° |
| 2026-05-05 13:38 | 55.85331 | 41.28925 | 30640 ft | 413 kts | 265° |
| 2026-05-05 13:38 | 55.85166 | 41.23855 | 30173 ft | 406 kts | 265° |
| 2026-05-05 13:38 | 55.85001 | 41.18844 | 29512 ft | 405 kts | 265° |
| 2026-05-05 13:39 | 55.84836 | 41.13874 | 28903 ft | 401 kts | 265° |
| 2026-05-05 13:39 | 55.84671 | 41.08944 | 28400 ft | 396 kts | 265° |
| 2026-05-05 13:39 | 55.84506 | 41.04064 | 27821 ft | 393 kts | 265° |
| 2026-05-05 13:39 | 55.84341 | 40.99260 | 27459 ft | 385 kts | 265° |
| 2026-05-05 13:40 | 55.84178 | 40.94556 | 27111 ft | 377 kts | 265° |
| 2026-05-05 13:40 | 55.84015 | 40.89948 | 26768 ft | 370 kts | 265° |
| 2026-05-05 13:40 | 55.83853 | 40.85430 | 26432 ft | 363 kts | 265° |
| 2026-05-05 13:40 | 55.83692 | 40.80993 | 26101 ft | 356 kts | 265° |
| 2026-05-05 13:41 | 55.83532 | 40.76629 | 25770 ft | 350 kts | 265° |
| 2026-05-05 13:41 | 55.83374 | 40.72341 | 25452 ft | 345 kts | 265° |
| 2026-05-05 13:41 | 55.83218 | 40.68177 | 25144 ft | 339 kts | 265° |
| 2026-05-05 13:41 | 55.83062 | 40.64025 | 24836 ft | 334 kts | 265° |
| 2026-05-05 13:42 | 55.82881 | 40.59929 | 24534 ft | 331 kts | 265° |
| 2026-05-05 13:42 | 55.82699 | 40.55856 | 24234 ft | 330 kts | 265° |
| 2026-05-05 13:42 | 55.82523 | 40.51788 | 23935 ft | 329 kts | 265° |
| 2026-05-05 13:42 | 55.82353 | 40.47747 | 23637 ft | 326 kts | 265° |
| 2026-05-05 13:43 | 55.82186 | 40.43737 | 23343 ft | 325 kts | 265° |
| 2026-05-05 13:43 | 55.82020 | 40.39730 | 23050 ft | 324 kts | 265° |
| 2026-05-05 13:43 | 55.81855 | 40.35742 | 22758 ft | 323 kts | 265° |
| 2026-05-05 13:43 | 55.81690 | 40.31780 | 22468 ft | 320 kts | 265° |
| 2026-05-05 13:44 | 55.81527 | 40.27844 | 22181 ft | 319 kts | 265° |
| 2026-05-05 13:44 | 55.81362 | 40.23917 | 21896 ft | 318 kts | 265° |
| 2026-05-05 13:44 | 55.81253 | 40.21324 | 21707 ft | 317 kts | 265° |
| 2026-05-05 13:44 | 55.81088 | 40.17423 | 21424 ft | 315 kts | 265° |
| 2026-05-05 13:45 | 55.80923 | 40.13541 | 21143 ft | 315 kts | 265° |
| 2026-05-05 13:45 | 55.80757 | 40.09673 | 20863 ft | 313 kts | 265° |
| 2026-05-05 13:45 | 55.80591 | 40.05830 | 20585 ft | 311 kts | 265° |
| 2026-05-05 13:45 | 55.80425 | 40.02014 | 20311 ft | 310 kts | 265° |
| 2026-05-05 13:46 | 55.80257 | 39.98191 | 20036 ft | 309 kts | 265° |
| 2026-05-05 13:46 | 55.80089 | 39.94387 | 19763 ft | 308 kts | 265° |
| 2026-05-05 13:46 | 55.79921 | 39.90607 | 19491 ft | 306 kts | 265° |
| 2026-05-05 13:46 | 55.79752 | 39.86837 | 19221 ft | 306 kts | 265° |
| 2026-05-05 13:47 | 55.79582 | 39.83073 | 18953 ft | 305 kts | 265° |
| 2026-05-05 13:47 | 55.79359 | 39.79340 | 18685 ft | 303 kts | 263° |
| 2026-05-05 13:47 | 55.79105 | 39.75618 | 18419 ft | 303 kts | 263° |
| 2026-05-05 13:47 | 55.78854 | 39.71901 | 18154 ft | 303 kts | 263° |
| 2026-05-05 13:48 | 55.78606 | 39.68197 | 17890 ft | 301 kts | 263° |
| 2026-05-05 13:48 | 55.78359 | 39.64508 | 17625 ft | 300 kts | 263° |
| 2026-05-05 13:48 | 55.78114 | 39.60837 | 17363 ft | 299 kts | 263° |
| 2026-05-05 13:48 | 55.77869 | 39.57174 | 17102 ft | 299 kts | 263° |
| 2026-05-05 13:49 | 55.77624 | 39.53522 | 16842 ft | 297 kts | 263° |
| 2026-05-05 13:49 | 55.77379 | 39.49882 | 16582 ft | 297 kts | 263° |
| 2026-05-05 13:49 | 55.77134 | 39.46247 | 16323 ft | 296 kts | 263° |
| 2026-05-05 13:49 | 55.76888 | 39.42630 | 16065 ft | 294 kts | 263° |
| 2026-05-05 13:50 | 55.76635 | 39.39029 | 15809 ft | 293 kts | 262° |
| 2026-05-05 13:50 | 55.76381 | 39.35441 | 15553 ft | 293 kts | 262° |
| 2026-05-05 13:50 | 55.76129 | 39.31857 | 15296 ft | 292 kts | 262° |
| 2026-05-05 13:50 | 55.75878 | 39.28291 | 15041 ft | 291 kts | 262° |
| 2026-05-05 13:51 | 55.75628 | 39.24738 | 14786 ft | 290 kts | 262° |
| 2026-05-05 13:51 | 55.75378 | 39.21189 | 14531 ft | 290 kts | 262° |
| 2026-05-05 13:51 | 55.75128 | 39.17645 | 14278 ft | 288 kts | 262° |
| 2026-05-05 13:51 | 55.74879 | 39.14119 | 14024 ft | 288 kts | 262° |
| 2026-05-05 13:52 | 55.74629 | 39.10601 | 13769 ft | 287 kts | 262° |
| 2026-05-05 13:52 | 55.74379 | 39.07100 | 13515 ft | 285 kts | 262° |
| 2026-05-05 13:52 | 55.74133 | 39.03659 | 13265 ft | 284 kts | 262° |
| 2026-05-05 13:52 | 55.73883 | 39.00184 | 13012 ft | 283 kts | 262° |
| 2026-05-05 13:53 | 55.73633 | 38.96717 | 12762 ft | 284 kts | 262° |
| 2026-05-05 13:53 | 55.73395 | 38.93245 | 12504 ft | 282 kts | 264° |
| 2026-05-05 13:53 | 55.73307 | 38.89773 | 12232 ft | 282 kts | 269° |
| 2026-05-05 13:53 | 55.73424 | 38.86309 | 11975 ft | 280 kts | 274° |
| 2026-05-05 13:54 | 55.73618 | 38.82873 | 11721 ft | 280 kts | 274° |
| 2026-05-05 13:54 | 55.73823 | 38.79435 | 11465 ft | 280 kts | 274° |
| 2026-05-05 13:54 | 55.74032 | 38.76001 | 11239 ft | 279 kts | 274° |
| 2026-05-05 13:54 | 55.74242 | 38.72592 | 11111 ft | 279 kts | 274° |
| 2026-05-05 13:55 | 55.74455 | 38.69164 | 10919 ft | 277 kts | 274° |
| 2026-05-05 13:55 | 55.74665 | 38.65794 | 10641 ft | 274 kts | 274° |
| 2026-05-05 13:55 | 55.74873 | 38.62452 | 10351 ft | 271 kts | 274° |
| 2026-05-05 13:55 | 55.75185 | 38.59171 | 10181 ft | 266 kts | 282° |
| 2026-05-05 13:56 | 55.75807 | 38.56133 | 10096 ft | 260 kts | 292° |
| 2026-05-05 13:56 | 55.76729 | 38.53379 | 10023 ft | 260 kts | 300° |
| 2026-05-05 13:56 | 55.77742 | 38.50694 | 9920 ft | 262 kts | 301° |
| 2026-05-05 13:56 | 55.78770 | 38.48028 | 9679 ft | 261 kts | 301° |
| 2026-05-05 13:57 | 55.79803 | 38.45377 | 9434 ft | 260 kts | 301° |
| 2026-05-05 13:57 | 55.80840 | 38.42733 | 9184 ft | 260 kts | 302° |
| 2026-05-05 13:57 | 55.81875 | 38.40101 | 8939 ft | 260 kts | 302° |
| 2026-05-05 13:57 | 55.82932 | 38.37487 | 8686 ft | 260 kts | 304° |
| 2026-05-05 13:58 | 55.84030 | 38.34943 | 8432 ft | 259 kts | 304° |
| 2026-05-05 13:58 | 55.85124 | 38.32420 | 8180 ft | 257 kts | 304° |
| 2026-05-05 13:58 | 55.86215 | 38.29908 | 7928 ft | 256 kts | 304° |
| 2026-05-05 13:58 | 55.87300 | 38.27405 | 7679 ft | 255 kts | 304° |
| 2026-05-05 13:59 | 55.89466 | 38.22408 | 7171 ft | 254 kts | 304° |
| 2026-05-05 13:59 | 55.90543 | 38.19922 | 6917 ft | 252 kts | 304° |
| 2026-05-05 14:00 | 55.92679 | 38.14985 | 6406 ft | 250 kts | 304° |
| 2026-05-05 14:00 | 55.93736 | 38.12536 | 6145 ft | 249 kts | 304° |
| 2026-05-05 14:00 | 55.94792 | 38.10090 | 5892 ft | 248 kts | 304° |
| 2026-05-05 14:00 | 55.95842 | 38.07654 | 5637 ft | 247 kts | 304° |
| 2026-05-05 14:01 | 55.96887 | 38.05226 | 5376 ft | 246 kts | 304° |
| 2026-05-05 14:01 | 55.97926 | 38.02812 | 5111 ft | 245 kts | 304° |
| 2026-05-05 14:01 | 55.98960 | 38.00406 | 4856 ft | 244 kts | 304° |
| 2026-05-05 14:01 | 55.99888 | 37.97888 | 4593 ft | 242 kts | 296° |
| 2026-05-05 14:02 | 56.00517 | 37.95108 | 4148 ft | 242 kts | 284° |
| 2026-05-05 14:02 | 56.00873 | 37.92203 | 3934 ft | 233 kts | 281° |
| 2026-05-05 14:02 | 56.01194 | 37.89464 | 3861 ft | 215 kts | 280° |
| 2026-05-05 14:02 | 56.01478 | 37.86963 | 3777 ft | 196 kts | 280° |
| 2026-05-05 14:03 | 56.01728 | 37.84717 | 3726 ft | 173 kts | 279° |
| 2026-05-05 14:03 | 56.01951 | 37.82668 | 3632 ft | 165 kts | 279° |
| 2026-05-05 14:03 | 56.02163 | 37.80699 | 3555 ft | 163 kts | 279° |
| 2026-05-05 14:03 | 56.02364 | 37.78708 | 3476 ft | 162 kts | 276° |
| 2026-05-05 14:04 | 56.02300 | 37.76702 | 3400 ft | 162 kts | 262° |
| 2026-05-05 14:04 | 56.02086 | 37.74728 | 3328 ft | 162 kts | 258° |
| 2026-05-05 14:04 | 56.01821 | 37.72773 | 3251 ft | 161 kts | 257° |
| 2026-05-05 14:04 | 56.01540 | 37.70826 | 3172 ft | 165 kts | 256° |
| 2026-05-05 14:05 | 56.01238 | 37.68781 | 2989 ft | 169 kts | 256° |
| 2026-05-05 14:05 | 56.00947 | 37.66835 | 2795 ft | 155 kts | 256° |
| 2026-05-05 14:05 | 56.00676 | 37.65029 | 2601 ft | 148 kts | 256° |
| 2026-05-05 14:05 | 56.00413 | 37.63270 | 2434 ft | 147 kts | 255° |
| 2026-05-05 14:06 | 56.00154 | 37.61514 | 2273 ft | 146 kts | 255° |
| 2026-05-05 14:06 | 55.99889 | 37.59765 | 2119 ft | 146 kts | 255° |
| 2026-05-05 14:06 | 55.99626 | 37.58009 | 1947 ft | 149 kts | 254° |
| 2026-05-05 14:06 | 55.99357 | 37.56196 | 1794 ft | 151 kts | 252° |
| 2026-05-05 14:07 | 55.99085 | 37.54398 | 1621 ft | 150 kts | 252° |
| 2026-05-05 14:07 | 55.98814 | 37.52598 | 1460 ft | 150 kts | 252° |
| 2026-05-05 14:07 | 55.98542 | 37.50792 | 1295 ft | 151 kts | 252° |
| 2026-05-05 14:07 | 55.98270 | 37.48959 | 1122 ft | 154 kts | 252° |
| 2026-05-05 14:08 | 55.97999 | 37.47158 | 926 ft | 146 kts | 252° |
| 2026-05-05 14:08 | 55.97737 | 37.45426 | 791 ft | 146 kts | 252° |
| 2026-05-05 14:08 | 55.97470 | 37.43647 | 661 ft | 148 kts | 252° |
| 2026-05-05 14:08 | 55.97228 | 37.42042 | 645 ft | 103 kts | 251° |
| 2026-05-05 14:09 | 55.97138 | 37.41418 | 645 ft | 21 kts | 284° |
| 2026-05-05 14:09 | 55.97257 | 37.41304 | 645 ft | 18 kts | 346° |
| 2026-05-05 14:09 | 55.97381 | 37.41245 | 645 ft | 19 kts | 344° |
| 2026-05-05 14:09 | 55.97511 | 37.41198 | 645 ft | 20 kts | 23° |
| 2026-05-05 14:10 | 55.97569 | 37.41414 | 645 ft | 21 kts | 75° |
| 2026-05-05 14:10 | 55.97633 | 37.41598 | 645 ft | 18 kts | 359° |
| 2026-05-05 14:10 | 55.97754 | 37.41545 | 645 ft | 18 kts | 345° |
| 2026-05-05 14:10 | 55.97870 | 37.41520 | 645 ft | 15 kts | 34° |
| 2026-05-05 14:11 | 55.97895 | 37.41612 | 645 ft | 4 kts | 74° |
| 2026-05-05 14:11 | 55.97902 | 37.41654 | 645 ft | 0 kts | 74° |